Silverdale, Pennsylvania
Current Conditions -  °F | °C
As of 5:54 AM on Sunday 21 Dec 2014 (Local Time) from KDYL Reporting Station
Broken Clouds Broken Clouds  
Wind Chill: 27°   Ceiling: 11000
Heat Index: 27°   Visibility: 10mi
Dew Point: 22°   Wind: 0mph
Humidity: 81%   Direction: NA
Pressure: 30.28"   Gusts: NA
Location:  40.35°N, 75.27°W
Report Text: KDYL 211054Z AUTO 00000KT 10SM BKN110 M03/M06 A3028 RMK AO2 SLP264 T10281056
Loading
Personal Weather Stations






























Interactive Weather Map New forecast layout! Learn more

10-Day Weather Forecast

Advertisements
Track Severe Weather on mobile